createdAt,value
2019-03-03T00:00:58.628Z,10.04
2019-03-03T00:01:58.618Z,10.01
2019-03-03T00:02:58.609Z,10.06
2019-03-03T00:03:58.614Z,10.09
2019-03-03T00:04:58.597Z,10.07
2019-03-03T00:05:58.574Z,10.07
2019-03-03T00:06:58.555Z,10.07
2019-03-03T00:07:58.548Z,10.04
2019-03-03T00:08:58.535Z,10.00
2019-03-03T00:09:58.541Z,10.07
2019-03-03T00:10:58.510Z,10.04
2019-03-03T00:11:58.497Z,10.07
2019-03-03T00:12:58.486Z,10.06
2019-03-03T00:13:58.493Z,10.00
2019-03-03T00:14:58.897Z,9.96
2019-03-03T00:15:58.452Z,9.97
2019-03-03T00:16:58.440Z,10.04
2019-03-03T00:17:58.428Z,10.04
2019-03-03T00:18:58.435Z,10.07
2019-03-03T00:19:58.408Z,10.07
2019-03-03T00:20:58.392Z,10.01
2019-03-03T00:21:58.384Z,10.03
2019-03-03T00:22:58.420Z,9.96
2019-03-03T00:23:58.356Z,9.91
2019-03-03T00:24:58.364Z,10.01
2019-03-03T00:25:58.334Z,9.91
2019-03-03T00:26:58.323Z,9.94
2019-03-03T00:27:58.316Z,9.91
2019-03-03T00:28:58.299Z,9.91
2019-03-03T00:29:58.309Z,9.94
2019-03-03T00:30:58.277Z,9.85
2019-03-03T00:31:58.263Z,9.96
2019-03-03T00:32:58.252Z,9.93
2019-03-03T00:33:58.246Z,9.91
2019-03-03T00:34:58.228Z,9.89
2019-03-03T00:35:58.235Z,9.91
2019-03-03T00:36:58.206Z,9.83
2019-03-03T00:37:58.194Z,9.86
2019-03-03T00:38:58.182Z,10.04
2019-03-03T00:39:58.171Z,9.91
2019-03-03T00:40:58.178Z,10.00
2019-03-03T00:41:58.149Z,9.93
2019-03-03T00:42:58.138Z,9.88
2019-03-03T00:43:58.127Z,9.99
2019-03-03T00:44:58.116Z,10.00
2019-03-03T00:45:58.123Z,10.03
2019-03-03T00:46:58.091Z,10.01
2019-03-03T00:47:58.079Z,9.93
2019-03-03T00:48:58.070Z,10.01
2019-03-03T00:49:58.056Z,10.06
2019-03-03T00:50:58.068Z,10.04
2019-03-03T00:51:58.034Z,10.03
2019-03-03T00:52:58.020Z,10.06
2019-03-03T00:53:58.014Z,10.10
2019-03-03T00:54:57.999Z,10.06
2019-03-03T00:55:57.987Z,10.03
2019-03-03T00:56:58.004Z,10.09
2019-03-03T00:57:57.963Z,10.22
2019-03-03T00:58:57.951Z,10.19
2019-03-03T00:59:57.942Z,10.30
2019-03-03T01:00:57.928Z,10.18
2019-03-03T01:01:57.940Z,10.15
2019-03-03T01:02:57.904Z,10.21
2019-03-03T01:03:57.896Z,10.22
2019-03-03T01:04:57.885Z,10.10
2019-03-03T01:05:57.876Z,10.10
2019-03-03T01:06:57.881Z,10.22
2019-03-03T01:07:57.849Z,10.15
2019-03-03T01:08:57.836Z,10.18
2019-03-03T01:09:57.825Z,10.19
2019-03-03T01:11:04.854Z,10.12
2019-03-03T01:11:57.840Z,10.15
2019-03-03T01:12:57.790Z,10.19
2019-03-03T01:13:57.777Z,10.17
2019-03-03T01:14:57.769Z,10.26
2019-03-03T01:15:57.758Z,10.21
2019-03-03T01:16:57.745Z,10.21
2019-03-03T01:17:57.751Z,10.26
2019-03-03T01:18:57.717Z,10.32
2019-03-03T01:19:57.709Z,10.22
2019-03-03T01:20:57.695Z,10.22
2019-03-03T01:21:57.683Z,10.24
2019-03-03T01:22:57.694Z,10.17
2019-03-03T01:23:57.659Z,10.25
2019-03-03T01:24:57.647Z,10.26
2019-03-03T01:25:57.636Z,10.34
2019-03-03T01:26:57.642Z,10.32
2019-03-03T01:27:57.611Z,10.34
2019-03-03T01:28:57.621Z,10.26
2019-03-03T01:29:57.590Z,10.26
2019-03-03T01:30:57.577Z,10.44
2019-03-03T01:31:57.566Z,10.36
2019-03-03T01:32:57.555Z,10.39
2019-03-03T01:33:57.561Z,10.33
2019-03-03T01:34:57.528Z,10.30
2019-03-03T01:35:57.515Z,10.28
2019-03-03T01:36:57.509Z,10.32
2019-03-03T01:37:57.492Z,10.28
2019-03-03T01:38:57.501Z,10.25
2019-03-03T01:39:57.470Z,10.37
2019-03-03T01:40:57.459Z,10.34
2019-03-03T01:41:57.447Z,10.28
2019-03-03T01:42:57.434Z,10.28
2019-03-03T01:43:57.443Z,10.32
2019-03-03T01:44:57.408Z,10.32
2019-03-03T01:45:57.401Z,10.30
2019-03-03T01:46:57.384Z,10.30
2019-03-03T01:47:57.375Z,10.36
2019-03-03T01:48:57.380Z,10.32
2019-03-03T01:49:57.353Z,10.32
2019-03-03T01:50:57.339Z,10.34
2019-03-03T01:51:57.328Z,10.32
2019-03-03T01:52:57.314Z,10.24
2019-03-03T01:53:57.345Z,10.32
2019-03-03T01:54:57.289Z,10.34
2019-03-03T01:55:57.285Z,10.30
2019-03-03T01:56:57.267Z,10.30
2019-03-03T01:57:57.254Z,10.34
2019-03-03T01:58:57.243Z,10.32
2019-03-03T01:59:57.258Z,10.33
2019-03-03T02:00:57.225Z,10.33
2019-03-03T02:01:57.211Z,10.32
2019-03-03T02:02:57.205Z,10.36
2019-03-03T02:03:57.184Z,10.33
2019-03-03T02:04:57.191Z,10.25
2019-03-03T02:05:57.159Z,10.32
2019-03-03T02:06:57.146Z,10.33
2019-03-03T02:07:57.136Z,10.32
2019-03-03T02:08:57.124Z,10.36
2019-03-03T02:09:57.132Z,10.37
2019-03-03T02:10:57.100Z,10.37
2019-03-03T02:11:57.091Z,10.28
2019-03-03T02:12:57.078Z,10.33
2019-03-03T02:13:57.063Z,10.30
2019-03-03T02:14:57.073Z,10.39
2019-03-03T02:15:57.042Z,10.34
2019-03-03T02:16:57.032Z,10.32
2019-03-03T02:17:57.020Z,10.32
2019-03-03T02:18:57.006Z,10.33
2019-03-03T02:19:57.012Z,10.33
2019-03-03T02:20:56.982Z,10.32
2019-03-03T02:21:56.968Z,10.34
2019-03-03T02:22:56.958Z,10.28
2019-03-03T02:23:56.950Z,10.28
2019-03-03T02:24:56.952Z,10.32
2019-03-03T02:25:56.920Z,10.25
2019-03-03T02:26:56.911Z,10.28
2019-03-03T02:27:56.897Z,10.24
2019-03-03T02:28:56.886Z,10.28
2019-03-03T02:29:56.893Z,10.21
2019-03-03T02:30:56.862Z,10.22
2019-03-03T02:31:56.859Z,10.22
2019-03-03T02:32:56.839Z,10.12
2019-03-03T02:33:56.826Z,10.17
2019-03-03T02:34:56.842Z,10.15
2019-03-03T02:35:56.801Z,9.97
2019-03-03T02:36:56.790Z,10.01
2019-03-03T02:37:56.779Z,10.03
2019-03-03T02:38:56.770Z,9.96
2019-03-03T02:39:56.860Z,10.04
2019-03-03T02:40:56.744Z,9.96
2019-03-03T02:41:56.730Z,9.93
2019-03-03T02:42:56.723Z,9.89
2019-03-03T02:43:56.720Z,9.97
2019-03-03T02:44:56.727Z,9.89
2019-03-03T02:45:56.688Z,9.85
2019-03-03T02:46:56.684Z,9.85
2019-03-03T02:47:56.664Z,9.82
2019-03-03T02:48:56.654Z,9.76
2019-03-03T02:49:56.663Z,9.85
2019-03-03T02:50:56.632Z,9.85
2019-03-03T02:51:56.618Z,9.76
2019-03-03T02:52:56.608Z,9.85
2019-03-03T02:53:56.597Z,9.79
2019-03-03T02:54:56.586Z,9.91
2019-03-03T02:55:56.591Z,9.78
2019-03-03T02:56:56.561Z,9.83
2019-03-03T02:57:56.552Z,9.79
2019-03-03T02:58:56.541Z,9.85
2019-03-03T02:59:56.527Z,9.88
2019-03-03T03:00:56.539Z,9.85
2019-03-03T03:01:56.507Z,9.86
2019-03-03T03:02:56.495Z,9.79
2019-03-03T03:03:56.486Z,9.88
2019-03-03T03:04:56.473Z,9.86
2019-03-03T03:05:56.551Z,9.76
2019-03-03T03:06:56.451Z,9.81
2019-03-03T03:07:56.440Z,9.79
2019-03-03T03:08:56.428Z,9.76
2019-03-03T03:09:56.417Z,9.76
2019-03-03T03:10:56.425Z,9.79
2019-03-03T03:11:56.405Z,9.91
2019-03-03T03:12:56.381Z,9.91
2019-03-03T03:13:56.376Z,9.86
2019-03-03T03:14:56.362Z,9.78
2019-03-03T03:15:56.369Z,9.76
2019-03-03T03:16:56.345Z,9.91
2019-03-03T03:17:56.328Z,9.97
2019-03-03T03:18:56.326Z,9.91
2019-03-03T03:19:56.306Z,9.91
2019-03-03T03:20:56.318Z,9.91
2019-03-03T03:21:56.280Z,9.81
2019-03-03T03:22:56.272Z,9.79
2019-03-03T03:23:56.259Z,9.82
2019-03-03T03:24:56.248Z,9.93
2019-03-03T03:25:56.234Z,10.01
2019-03-03T03:26:56.244Z,9.97
2019-03-03T03:27:56.213Z,9.99
2019-03-03T03:28:56.197Z,10.01
2019-03-03T03:29:56.191Z,10.03
2019-03-03T03:30:56.207Z,9.93
2019-03-03T03:31:56.167Z,10.01
2019-03-03T03:32:56.156Z,9.86
2019-03-03T03:33:56.143Z,10.03
2019-03-03T03:34:56.132Z,9.88
2019-03-03T03:35:56.126Z,9.96
2019-03-03T03:36:56.129Z,9.89
2019-03-03T03:37:56.104Z,9.88
2019-03-03T03:38:56.087Z,9.88
2019-03-03T03:39:56.075Z,9.82
2019-03-03T03:40:56.069Z,9.85
2019-03-03T03:41:56.075Z,9.91
2019-03-03T03:42:56.042Z,9.81
2019-03-03T03:43:56.032Z,9.93
2019-03-03T03:44:56.018Z,9.89
2019-03-03T03:45:56.008Z,9.85
2019-03-03T03:46:55.998Z,9.81
2019-03-03T03:47:56.004Z,9.94
2019-03-03T03:48:55.978Z,9.91
2019-03-03T03:49:55.966Z,9.97
2019-03-03T03:50:55.954Z,9.89
2019-03-03T03:51:55.939Z,10.04
2019-03-03T03:52:55.955Z,9.94
2019-03-03T03:53:55.916Z,9.86
2019-03-03T03:54:55.904Z,9.88
2019-03-03T03:55:55.909Z,9.96
2019-03-03T03:56:55.883Z,9.91
2019-03-03T03:57:55.896Z,9.85
2019-03-03T03:58:55.860Z,9.91
2019-03-03T03:59:55.852Z,9.91
2019-03-03T04:00:55.842Z,9.91
2019-03-03T04:01:55.826Z,9.88
2019-03-03T04:02:55.813Z,9.96
2019-03-03T04:03:55.820Z,9.88
2019-03-03T04:04:55.785Z,9.99
2019-03-03T04:05:55.775Z,9.94
2019-03-03T04:06:55.765Z,9.91
2019-03-03T04:07:55.760Z,9.89
2019-03-03T04:08:55.762Z,9.96
2019-03-03T04:09:55.730Z,9.89
2019-03-03T04:10:55.718Z,10.00
2019-03-03T04:11:55.709Z,10.03
2019-03-03T04:12:55.694Z,10.03
2019-03-03T04:13:55.725Z,10.04
2019-03-03T04:14:55.673Z,10.04
2019-03-03T04:15:55.660Z,9.97
2019-03-03T04:16:55.650Z,10.00
2019-03-03T04:17:55.640Z,10.04
2019-03-03T04:18:55.629Z,10.06
2019-03-03T04:19:55.632Z,10.06
2019-03-03T04:20:55.601Z,9.97
2019-03-03T04:21:55.588Z,10.09
2019-03-03T04:22:55.584Z,10.12
2019-03-03T04:23:55.568Z,10.04
2019-03-03T04:24:55.572Z,10.07
2019-03-03T04:25:55.596Z,10.07
2019-03-03T04:26:55.538Z,9.97
2019-03-03T04:27:55.527Z,10.06
2019-03-03T04:28:55.512Z,10.03
2019-03-03T04:29:55.520Z,10.03
2019-03-03T04:30:55.489Z,10.09
2019-03-03T04:31:55.487Z,10.06
2019-03-03T04:32:55.464Z,10.03
2019-03-03T04:33:55.457Z,10.06
2019-03-03T04:34:55.465Z,9.94
2019-03-03T04:35:55.432Z,10.00
2019-03-03T04:36:55.418Z,10.00
2019-03-03T04:37:55.419Z,10.01
2019-03-03T04:38:55.395Z,9.93
2019-03-03T04:39:55.384Z,9.96
2019-03-03T04:40:55.392Z,9.93
2019-03-03T04:41:55.366Z,9.99
2019-03-03T04:42:55.352Z,9.96
2019-03-03T04:43:55.340Z,9.86
2019-03-03T04:44:55.329Z,9.99
2019-03-03T04:45:55.337Z,9.99
2019-03-03T04:46:55.305Z,9.94
2019-03-03T04:47:55.296Z,9.89
2019-03-03T04:48:55.289Z,9.97
2019-03-03T04:49:55.273Z,9.96
2019-03-03T04:50:55.301Z,9.94
2019-03-03T04:51:55.266Z,9.93
2019-03-03T04:52:55.238Z,10.00
2019-03-03T04:53:55.228Z,9.93
2019-03-03T04:54:55.218Z,9.86
2019-03-03T04:55:55.224Z,9.94
2019-03-03T04:56:55.194Z,9.96
2019-03-03T04:57:55.183Z,9.91
2019-03-03T04:58:55.173Z,9.97
2019-03-03T04:59:55.161Z,9.99
2019-03-03T05:00:55.172Z,10.06
2019-03-03T05:01:55.138Z,9.93
2019-03-03T05:02:55.130Z,9.99
2019-03-03T05:03:55.114Z,9.94
2019-03-03T05:04:55.103Z,9.91
2019-03-03T05:05:55.093Z,9.89
2019-03-03T05:06:55.102Z,9.83
2019-03-03T05:07:55.071Z,9.71
2019-03-03T05:08:55.059Z,9.82
2019-03-03T05:09:55.050Z,9.60
2019-03-03T05:10:55.041Z,9.61
2019-03-03T05:11:55.044Z,9.48
2019-03-03T05:12:55.021Z,9.46
2019-03-03T05:13:55.053Z,9.50
2019-03-03T05:14:54.995Z,9.48
2019-03-03T05:15:54.983Z,9.48
2019-03-03T05:16:54.989Z,9.46
2019-03-03T05:17:54.960Z,9.40
2019-03-03T05:18:54.947Z,9.45
2019-03-03T05:19:54.940Z,9.27
2019-03-03T05:20:54.924Z,9.45
2019-03-03T05:21:54.931Z,9.42
2019-03-03T05:22:54.903Z,9.35
2019-03-03T05:23:54.891Z,9.28
2019-03-03T05:24:54.880Z,9.27
2019-03-03T05:25:54.867Z,9.28
2019-03-03T05:26:54.883Z,9.39
2019-03-03T05:27:54.848Z,9.38
2019-03-03T05:28:54.837Z,9.40
2019-03-03T05:29:54.824Z,9.39
2019-03-03T05:30:54.812Z,9.43
2019-03-03T05:31:54.801Z,9.43
2019-03-03T05:32:54.808Z,9.52
2019-03-03T05:33:54.777Z,9.45
2019-03-03T05:34:54.766Z,9.46
2019-03-03T05:35:54.755Z,9.46
2019-03-03T05:36:54.744Z,9.57
2019-03-03T05:37:54.753Z,9.46
2019-03-03T05:38:54.724Z,9.66
2019-03-03T05:39:54.710Z,9.52
2019-03-03T05:40:54.697Z,9.49
2019-03-03T05:41:54.686Z,9.49
2019-03-03T05:42:54.693Z,9.49
2019-03-03T05:43:54.663Z,9.49
2019-03-03T05:44:54.660Z,9.52
2019-03-03T05:45:54.645Z,9.56
2019-03-03T05:46:54.633Z,9.45
2019-03-03T05:47:54.640Z,9.50
2019-03-03T05:48:54.607Z,9.58
2019-03-03T05:49:54.598Z,9.52
2019-03-03T05:50:54.587Z,9.46
2019-03-03T05:51:54.575Z,9.32
2019-03-03T05:52:54.582Z,9.45
2019-03-03T05:53:54.553Z,9.48
2019-03-03T05:54:54.544Z,9.39
2019-03-03T05:55:54.533Z,9.28
2019-03-03T05:56:54.519Z,9.24
2019-03-03T05:57:54.547Z,9.35
2019-03-03T05:58:54.496Z,9.38
2019-03-03T05:59:54.483Z,9.32
2019-03-03T06:00:54.471Z,9.24
2019-03-03T06:01:54.462Z,9.35
2019-03-03T06:02:54.448Z,9.28
2019-03-03T06:03:54.459Z,9.42
2019-03-03T06:04:54.428Z,9.35
2019-03-03T06:05:54.416Z,9.34
2019-03-03T06:06:54.412Z,9.28
2019-03-03T06:07:54.395Z,9.43
2019-03-03T06:08:54.401Z,9.38
2019-03-03T06:09:54.372Z,9.34
2019-03-03T06:10:54.362Z,9.35
2019-03-03T06:11:54.349Z,9.34
2019-03-03T06:12:54.341Z,9.39
2019-03-03T06:13:54.349Z,9.48
2019-03-03T06:14:54.318Z,9.38
2019-03-03T06:15:54.310Z,9.40
2019-03-03T06:16:54.296Z,9.57
2019-03-03T06:17:54.282Z,9.61
2019-03-03T06:18:54.288Z,9.50
2019-03-03T06:19:54.260Z,9.52
2019-03-03T06:20:54.246Z,9.57
2019-03-03T06:21:54.237Z,9.48
2019-03-03T06:22:54.225Z,9.45
2019-03-03T06:23:54.256Z,9.57
2019-03-03T06:24:54.201Z,9.49
2019-03-03T06:25:54.194Z,9.58
2019-03-03T06:26:54.184Z,9.67
2019-03-03T06:27:54.168Z,9.73
2019-03-03T06:28:54.158Z,9.67
2019-03-03T06:29:54.164Z,9.73
2019-03-03T06:30:54.141Z,9.76
2019-03-03T06:31:54.157Z,9.73
2019-03-03T06:32:54.112Z,9.76
2019-03-03T06:33:54.105Z,9.83
2019-03-03T06:34:54.108Z,9.75
2019-03-03T06:35:54.080Z,9.75
2019-03-03T06:36:54.072Z,9.78
2019-03-03T06:37:54.060Z,9.75
2019-03-03T06:38:54.048Z,9.76
2019-03-03T06:39:54.052Z,9.79
2019-03-03T06:40:54.021Z,9.83
2019-03-03T06:41:54.012Z,9.88
2019-03-03T06:42:54.000Z,9.82
2019-03-03T06:43:54.043Z,9.85
2019-03-03T06:44:53.997Z,9.88
2019-03-03T06:45:53.965Z,9.76
2019-03-03T06:46:53.956Z,9.75
2019-03-03T06:47:53.947Z,9.83
2019-03-03T06:48:53.933Z,9.85
2019-03-03T06:49:53.937Z,9.83
2019-03-03T06:50:53.910Z,9.73
2019-03-03T06:51:53.902Z,9.71
2019-03-03T06:52:53.891Z,9.68
2019-03-03T06:53:53.879Z,9.78
2019-03-03T06:54:53.906Z,9.68
2019-03-03T06:55:53.855Z,9.70
2019-03-03T06:56:53.844Z,9.66
2019-03-03T06:57:53.832Z,9.58
2019-03-03T06:58:53.822Z,9.56
2019-03-03T06:59:53.812Z,9.52
2019-03-03T07:00:53.820Z,9.58
2019-03-03T07:01:53.787Z,9.52
2019-03-03T07:02:53.777Z,9.46
2019-03-03T07:03:53.763Z,9.32
2019-03-03T07:04:53.753Z,9.28
2019-03-03T07:05:53.760Z,9.27
2019-03-03T07:06:53.729Z,9.27
2019-03-03T07:07:53.719Z,9.25
2019-03-03T07:08:53.711Z,9.24
2019-03-03T07:09:53.699Z,9.27
2019-03-03T07:10:53.724Z,9.27
2019-03-03T07:12:00.707Z,9.24
2019-03-03T07:12:53.664Z,9.10
2019-03-03T07:13:53.661Z,9.16
2019-03-03T07:14:53.648Z,9.23
2019-03-03T07:15:53.630Z,9.21
2019-03-03T07:16:53.637Z,9.16
2019-03-03T07:17:53.607Z,9.18
2019-03-03T07:18:53.596Z,9.10
2019-03-03T07:19:53.581Z,9.18
2019-03-03T07:20:53.576Z,9.12
2019-03-03T07:21:53.580Z,9.23
2019-03-03T07:22:53.553Z,9.15
2019-03-03T07:23:53.537Z,9.09
2019-03-03T07:24:53.526Z,9.15
2019-03-03T07:25:53.512Z,9.09
2019-03-03T07:26:53.524Z,9.12
2019-03-03T07:27:53.491Z,9.12
2019-03-03T07:28:53.480Z,9.01
2019-03-03T07:29:53.469Z,9.15
2019-03-03T07:30:53.460Z,9.10
2019-03-03T07:31:53.465Z,8.94
2019-03-03T07:32:53.436Z,9.01
2019-03-03T07:33:53.426Z,9.09
2019-03-03T07:34:53.413Z,9.04
2019-03-03T07:35:53.404Z,9.15
2019-03-03T07:36:53.409Z,9.09
2019-03-03T07:37:53.378Z,9.10
2019-03-03T07:38:53.370Z,9.02
2019-03-03T07:39:53.485Z,9.05
2019-03-03T07:40:53.342Z,9.12
2019-03-03T07:41:53.352Z,9.15
2019-03-03T07:42:53.321Z,9.18
2019-03-03T07:43:53.309Z,9.18
2019-03-03T07:44:53.298Z,9.16
2019-03-03T07:45:53.284Z,9.13
2019-03-03T07:46:53.294Z,9.13
2019-03-03T07:47:53.264Z,9.13
2019-03-03T07:48:53.252Z,9.13
2019-03-03T07:49:53.241Z,9.20
2019-03-03T07:50:53.229Z,9.23
2019-03-03T07:51:53.241Z,9.13
2019-03-03T07:52:53.210Z,9.20
2019-03-03T07:53:53.196Z,9.25
2019-03-03T07:54:53.187Z,9.16
2019-03-03T07:55:53.172Z,9.23
2019-03-03T07:56:53.186Z,9.20
2019-03-03T07:57:53.149Z,9.15
2019-03-03T07:58:53.141Z,9.31
2019-03-03T07:59:53.129Z,9.25
2019-03-03T08:00:53.119Z,9.16
2019-03-03T08:01:53.106Z,9.28
2019-03-03T08:02:53.111Z,9.27
2019-03-03T08:03:53.084Z,9.28
2019-03-03T08:04:53.071Z,9.23
2019-03-03T08:05:53.059Z,9.18
2019-03-03T08:06:53.051Z,9.27
2019-03-03T08:07:53.057Z,9.21
2019-03-03T08:08:53.027Z,9.32
2019-03-03T08:09:53.014Z,9.28
2019-03-03T08:10:53.005Z,9.28
2019-03-03T08:11:52.994Z,9.32
2019-03-03T08:12:53.006Z,9.28
2019-03-03T08:13:52.970Z,9.42
2019-03-03T08:14:52.959Z,9.31
2019-03-03T08:15:52.950Z,9.43
2019-03-03T08:16:52.938Z,9.35
2019-03-03T08:17:52.945Z,9.28
2019-03-03T08:18:52.914Z,9.34
2019-03-03T08:19:52.902Z,9.31
2019-03-03T08:20:52.893Z,9.31
2019-03-03T08:21:52.880Z,9.28
2019-03-03T08:22:52.897Z,9.34
2019-03-03T08:23:52.859Z,9.30
2019-03-03T08:24:52.858Z,9.32
2019-03-03T08:25:52.836Z,9.30
2019-03-03T08:26:52.825Z,9.21
2019-03-03T08:27:52.811Z,9.30
2019-03-03T08:28:52.820Z,9.30
2019-03-03T08:29:52.790Z,9.35
2019-03-03T08:30:52.783Z,9.28
2019-03-03T08:31:52.769Z,9.27
2019-03-03T08:32:52.757Z,9.34
2019-03-03T08:33:52.764Z,9.31
2019-03-03T08:34:52.734Z,9.28
2019-03-03T08:35:52.722Z,9.30
2019-03-03T08:36:52.716Z,9.42
2019-03-03T08:37:52.701Z,9.38
2019-03-03T08:38:52.707Z,9.40
2019-03-03T08:39:52.683Z,9.43
2019-03-03T08:40:52.673Z,9.45
2019-03-03T08:41:52.657Z,9.64
2019-03-03T08:42:52.647Z,9.70
2019-03-03T08:43:52.651Z,9.58
2019-03-03T08:44:52.624Z,9.53
2019-03-03T08:45:52.616Z,9.52
2019-03-03T08:46:52.598Z,9.56
2019-03-03T08:47:53.389Z,9.58
2019-03-03T08:48:52.595Z,9.56
2019-03-03T08:49:52.568Z,9.58
2019-03-03T08:50:52.554Z,9.50
2019-03-03T08:51:52.543Z,9.60
2019-03-03T08:52:52.531Z,9.63
2019-03-03T08:53:52.553Z,9.46
2019-03-03T08:54:52.513Z,9.61
2019-03-03T08:55:52.501Z,9.57
2019-03-03T08:56:52.498Z,9.48
2019-03-03T08:57:52.479Z,9.57
2019-03-03T08:58:52.488Z,9.53
2019-03-03T08:59:52.456Z,9.53
2019-03-03T09:00:52.444Z,9.53
2019-03-03T09:01:52.431Z,9.56
2019-03-03T09:02:52.427Z,9.63
2019-03-03T09:03:52.408Z,9.63
2019-03-03T09:04:52.418Z,9.63
2019-03-03T09:05:52.388Z,9.56
2019-03-03T09:06:52.377Z,9.49
2019-03-03T09:07:52.364Z,9.49
2019-03-03T09:08:52.354Z,9.58
2019-03-03T09:09:52.360Z,9.61
2019-03-03T09:10:52.332Z,9.68
2019-03-03T09:11:52.321Z,9.57
2019-03-03T09:12:52.308Z,9.58
2019-03-03T09:13:52.305Z,9.56
2019-03-03T09:14:52.306Z,9.56
2019-03-03T09:15:52.281Z,9.61
2019-03-03T09:16:52.265Z,9.64
2019-03-03T09:17:52.252Z,9.63
2019-03-03T09:18:52.240Z,9.63
2019-03-03T09:19:52.251Z,9.46
2019-03-03T09:20:52.219Z,9.58
2019-03-03T09:21:52.208Z,9.52
2019-03-03T09:22:52.196Z,9.48
2019-03-03T09:23:52.185Z,9.43
2019-03-03T09:24:52.191Z,9.38
2019-03-03T09:25:52.166Z,9.42
2019-03-03T09:26:52.151Z,9.46
2019-03-03T09:27:52.138Z,9.49
2019-03-03T09:28:52.132Z,9.48
2019-03-03T09:29:52.136Z,9.40
2019-03-03T09:30:52.112Z,9.40
2019-03-03T09:31:52.096Z,9.42
2019-03-03T09:32:52.086Z,9.27
2019-03-03T09:33:52.091Z,9.32
2019-03-03T09:34:52.083Z,9.31
2019-03-03T09:35:52.051Z,9.35
2019-03-03T09:36:52.040Z,9.39
2019-03-03T09:37:52.029Z,9.35
2019-03-03T09:38:52.017Z,9.45
2019-03-03T09:39:52.025Z,9.39
2019-03-03T09:40:51.994Z,9.42
2019-03-03T09:41:51.985Z,9.39
2019-03-03T09:42:51.974Z,9.31
2019-03-03T09:43:51.958Z,9.39
2019-03-03T09:44:51.969Z,9.35
2019-03-03T09:45:51.936Z,9.48
2019-03-03T09:46:51.925Z,9.39
2019-03-03T09:47:51.915Z,9.53
2019-03-03T09:48:51.908Z,9.40
2019-03-03T09:49:51.910Z,9.52
2019-03-03T09:50:51.881Z,9.49
2019-03-03T09:51:51.870Z,9.45
2019-03-03T09:52:51.859Z,9.58
2019-03-03T09:53:51.847Z,9.49
2019-03-03T09:54:51.859Z,9.50
2019-03-03T09:55:51.825Z,9.45
2019-03-03T09:56:51.811Z,9.58
2019-03-03T09:57:51.802Z,9.48
2019-03-03T09:58:51.790Z,9.53
2019-03-03T09:59:51.777Z,9.46
2019-03-03T10:00:51.787Z,9.60
2019-03-03T10:01:51.755Z,9.63
2019-03-03T10:02:51.744Z,9.57
2019-03-03T10:03:51.735Z,9.53
2019-03-03T10:04:51.741Z,9.52
2019-03-03T10:05:51.712Z,9.64
2019-03-03T10:06:51.697Z,9.56
2019-03-03T10:07:51.688Z,9.61
2019-03-03T10:08:51.678Z,9.61
2019-03-03T10:09:51.681Z,9.67
2019-03-03T10:10:51.652Z,9.60
2019-03-03T10:11:51.642Z,9.60
2019-03-03T10:12:51.628Z,9.66
2019-03-03T10:13:51.616Z,9.66
2019-03-03T10:14:51.629Z,9.66
2019-03-03T10:15:51.597Z,9.73
2019-03-03T10:16:51.592Z,9.73
2019-03-03T10:17:51.573Z,9.73
2019-03-03T10:18:51.561Z,9.73
2019-03-03T10:19:51.575Z,9.75
2019-03-03T10:20:51.539Z,9.67
2019-03-03T10:21:51.526Z,9.68
2019-03-03T10:22:51.516Z,9.82
2019-03-03T10:23:51.503Z,9.79
2019-03-03T10:24:51.493Z,9.78
2019-03-03T10:25:51.502Z,9.79
2019-03-03T10:26:51.473Z,9.78
2019-03-03T10:27:51.462Z,9.76
2019-03-03T10:28:51.448Z,9.79
2019-03-03T10:29:51.433Z,9.78
2019-03-03T10:30:51.441Z,9.88
2019-03-03T10:31:51.417Z,9.86
2019-03-03T10:32:51.401Z,9.81
2019-03-03T10:33:51.389Z,9.78
2019-03-03T10:34:51.375Z,9.88
2019-03-03T10:35:51.385Z,9.81
2019-03-03T10:36:51.352Z,9.85
2019-03-03T10:37:51.343Z,9.89
2019-03-03T10:38:51.329Z,9.86
2019-03-03T10:39:51.319Z,9.99
2019-03-03T10:40:51.336Z,9.96
2019-03-03T10:41:51.294Z,9.96
2019-03-03T10:42:51.287Z,9.81
2019-03-03T10:43:51.274Z,10.00
2019-03-03T10:44:51.258Z,9.96
2019-03-03T10:45:51.265Z,9.88
2019-03-03T10:46:51.236Z,9.91
2019-03-03T10:47:51.224Z,10.03
2019-03-03T10:48:51.215Z,9.99
2019-03-03T10:49:51.201Z,10.04
2019-03-03T10:50:51.208Z,10.10
2019-03-03T10:51:51.178Z,10.00
2019-03-03T10:52:51.164Z,9.99
2019-03-03T10:53:51.153Z,10.00
2019-03-03T10:54:51.153Z,10.06
2019-03-03T10:55:51.155Z,10.06
2019-03-03T10:56:51.119Z,10.06
2019-03-03T10:57:51.110Z,10.03
2019-03-03T10:58:51.094Z,10.09
2019-03-03T10:59:55.082Z,10.14
2019-03-03T11:00:51.072Z,10.07
2019-03-03T11:01:51.079Z,10.14
2019-03-03T11:02:51.052Z,10.07
2019-03-03T11:03:51.041Z,10.09
2019-03-03T11:04:51.027Z,10.12
2019-03-03T11:05:51.023Z,10.06
2019-03-03T11:06:51.027Z,10.14
2019-03-03T11:07:50.990Z,10.12
2019-03-03T11:08:50.981Z,10.17
2019-03-03T11:09:50.971Z,10.18
2019-03-03T11:10:57.523Z,10.14
2019-03-03T11:11:51.961Z,10.30
2019-03-03T11:12:50.931Z,10.19
2019-03-03T11:13:50.954Z,10.36
2019-03-03T11:14:50.911Z,10.32
2019-03-03T11:15:50.901Z,10.32
2019-03-03T11:16:50.926Z,10.37
2019-03-03T11:17:50.875Z,10.36
2019-03-03T11:18:55.918Z,10.24
2019-03-03T11:19:51.852Z,10.32
2019-03-03T11:20:50.839Z,10.32
2019-03-03T11:21:50.831Z,10.21
2019-03-03T11:22:50.834Z,10.30
2019-03-03T11:23:50.802Z,10.25
2019-03-03T11:24:50.789Z,10.30
2019-03-03T11:25:50.786Z,10.30
2019-03-03T11:26:50.768Z,10.28
2019-03-03T11:27:50.774Z,10.36
2019-03-03T11:28:50.748Z,10.30
2019-03-03T11:29:50.731Z,10.32
2019-03-03T11:30:50.724Z,10.30
2019-03-03T11:31:50.710Z,10.32
2019-03-03T11:32:50.717Z,10.28
2019-03-03T11:33:50.684Z,10.28
2019-03-03T11:34:50.674Z,10.33
2019-03-03T11:35:50.662Z,10.37
2019-03-03T11:36:50.652Z,10.33
2019-03-03T11:37:50.663Z,10.51
2019-03-03T11:38:50.628Z,10.26
2019-03-03T11:39:50.620Z,10.34
2019-03-03T11:40:50.607Z,10.37
2019-03-03T11:41:50.613Z,10.22
2019-03-03T11:42:50.603Z,10.46
2019-03-03T11:43:50.573Z,10.42
2019-03-03T11:44:50.563Z,10.42
2019-03-03T11:45:50.550Z,10.46
2019-03-03T11:46:50.539Z,10.44
2019-03-03T11:47:50.563Z,10.56
2019-03-03T11:48:50.513Z,10.47
2019-03-03T11:49:50.504Z,10.55
2019-03-03T11:50:50.502Z,10.58
2019-03-03T11:51:50.481Z,10.51
2019-03-03T11:52:50.469Z,10.59
2019-03-03T11:53:50.474Z,10.55
2019-03-03T11:54:50.442Z,10.60
2019-03-03T11:55:50.432Z,10.55
2019-03-03T11:56:50.418Z,10.53
2019-03-03T11:57:50.407Z,10.53
2019-03-03T11:58:50.413Z,10.52
2019-03-03T11:59:50.383Z,10.71
2019-03-03T12:00:50.370Z,10.62
2019-03-03T12:01:50.360Z,10.62
2019-03-03T12:02:53.902Z,10.70
2019-03-03T12:03:50.355Z,10.62
2019-03-03T12:04:50.325Z,10.65
2019-03-03T12:05:50.313Z,10.56
2019-03-03T12:06:50.610Z,10.65
2019-03-03T12:07:50.290Z,10.63
2019-03-03T12:08:50.301Z,10.65
2019-03-03T12:09:50.265Z,10.58
2019-03-03T12:10:50.256Z,10.77
2019-03-03T12:11:50.241Z,10.68
2019-03-03T12:12:50.229Z,10.70
2019-03-03T12:13:50.219Z,10.68
2019-03-03T12:14:50.230Z,10.60
2019-03-03T12:15:50.194Z,10.68
2019-03-03T12:16:50.184Z,10.71
2019-03-03T12:17:50.174Z,10.70
2019-03-03T12:18:50.162Z,10.58
2019-03-03T12:19:50.170Z,10.73
2019-03-03T12:20:50.138Z,10.60
2019-03-03T12:21:50.125Z,10.68
2019-03-03T12:22:50.113Z,10.77
2019-03-03T12:23:50.375Z,10.77
2019-03-03T12:24:50.116Z,10.81
2019-03-03T12:25:50.079Z,10.76
2019-03-03T12:26:50.070Z,10.76
2019-03-03T12:27:50.057Z,10.80
2019-03-03T12:28:50.047Z,10.83
2019-03-03T12:29:50.050Z,10.77
2019-03-03T12:30:50.024Z,10.80
2019-03-03T12:31:50.863Z,10.89
2019-03-03T12:32:50.002Z,10.88
2019-03-03T12:33:49.987Z,10.92
2019-03-03T12:34:49.998Z,10.80
2019-03-03T12:35:49.965Z,10.92
2019-03-03T12:36:49.954Z,10.88
2019-03-03T12:37:49.943Z,10.89
2019-03-03T12:38:49.931Z,10.81
2019-03-03T12:39:49.919Z,10.95
2019-03-03T12:40:49.934Z,10.89
2019-03-03T12:41:49.896Z,11.01
2019-03-03T12:42:49.886Z,10.98
2019-03-03T12:43:49.874Z,10.98
2019-03-03T12:44:49.860Z,11.07
2019-03-03T12:45:49.866Z,10.91
2019-03-03T12:46:49.838Z,11.01
2019-03-03T12:47:49.827Z,10.80
2019-03-03T12:48:49.823Z,10.83
2019-03-03T12:49:49.803Z,10.81
2019-03-03T12:50:49.822Z,10.83
2019-03-03T12:51:49.782Z,10.80
2019-03-03T12:52:49.770Z,10.88
2019-03-03T12:53:49.761Z,10.84
2019-03-03T12:54:49.747Z,10.92
2019-03-03T12:55:49.750Z,10.89
2019-03-03T12:56:49.721Z,10.84
2019-03-03T12:57:49.710Z,10.86
2019-03-03T12:58:49.699Z,10.86
2019-03-03T12:59:49.689Z,10.92
2019-03-03T13:00:49.696Z,10.94
2019-03-03T13:01:49.673Z,10.91
2019-03-03T13:02:49.665Z,10.95
2019-03-03T13:03:49.642Z,10.96
2019-03-03T13:04:49.631Z,10.96
2019-03-03T13:05:49.643Z,10.86
2019-03-03T13:06:49.631Z,10.78
2019-03-03T13:07:49.597Z,10.88
2019-03-03T13:08:59.191Z,10.89